^^
Saratoga-Weather Station Historical Data
Daily Summary for March 15, 2020 Units:  Both    English   Metric
Daily Weekly Monthly Yearly Custom
  High: Low: Average:
Temperature: 92.7 °F /  33.7 °C 58.3 °F /  14.6 °C 72.9 °F /  22.7 °C
Dew Point: 64 °F /  17.8 °C 53.6 °F /  12 °C 58.1 °F /  14.5 °C
Humidity: 86% 35% 63%
Wind Speed: 4.9mph /  7.9km/h - 0.6mph /  0.9km/h
Wind Gust: 7mph /  11.3km/h - -
Wind- - ESE
Pressure: 30.1 in /  1020.3 hPa 30 in /  1016.3 hPa -
Precipitation: 0 in /  0.0 mm    
Historical Graphs
 
 
Tabular Data for March 15, 2020
Time Temperature Dew Point Pressure Wind Wind Speed Wind Gust Humidity Rainfall Rate (Hourly) solar
00:00 64.8 °F /  18.2 °C 55.2 °F /  12.9 °C 30.1in /  1020.3hPa Calm     71% 0in /  0.0mm 0 W/m2
00:05 64.6 °F /  18.1 °C 55 °F /  12.8 °C 30.1in /  1020.3hPa Calm     71% 0in /  0.0mm 0 W/m2
00:10 64.6 °F /  18.1 °C 55 °F /  12.8 °C 30.1in /  1020.3hPa Calm     71% 0in /  0.0mm 0 W/m2
00:15 64.2 °F /  17.9 °C 54.7 °F /  12.6 °C 30.1in /  1020.3hPa Calm     71% 0in /  0.0mm 0 W/m2
00:20 64.2 °F /  17.9 °C 55 °F /  12.8 °C 30.1in /  1020.3hPa Calm     72% 0in /  0.0mm 0 W/m2
00:25 64 °F /  17.8 °C 54.9 °F /  12.7 °C 30.1in /  1020.3hPa Calm     72% 0in /  0.0mm 0 W/m2
00:30 64 °F /  17.8 °C 54.9 °F /  12.7 °C 30.1in /  1020.3hPa Calm     72% 0in /  0.0mm 0 W/m2
00:35 63.9 °F /  17.7 °C 54.7 °F /  12.6 °C 30.1in /  1020.3hPa Calm     72% 0in /  0.0mm 0 W/m2
00:40 63.9 °F /  17.7 °C 54.7 °F /  12.6 °C 30.1in /  1020.3hPa Calm     72% 0in /  0.0mm 0 W/m2
00:45 63.7 °F /  17.6 °C 54.9 °F /  12.7 °C 30.1in /  1020.3hPa Calm     73% 0in /  0.0mm 0 W/m2
00:50 63.7 °F /  17.6 °C 54.9 °F /  12.7 °C 30.1in /  1020.3hPa Calm     73% 0in /  0.0mm 0 W/m2
00:55 63.3 °F /  17.4 °C 54.5 °F /  12.5 °C 30.1in /  1020.3hPa Calm     73% 0in /  0.0mm 0 W/m2
01:00 63.3 °F /  17.4 °C 54.9 °F /  12.7 °C 30.1in /  1020.3hPa Calm     74% 0in /  0.0mm 0 W/m2
01:05 63.3 °F /  17.4 °C 54.9 °F /  12.7 °C 30.1in /  1020.3hPa Calm     74% 0in /  0.0mm 0 W/m2
01:10 63.1 °F /  17.3 °C 54.7 °F /  12.6 °C 30.1in /  1020.3hPa Calm     74% 0in /  0.0mm 0 W/m2
01:15 63.1 °F /  17.3 °C 54.7 °F /  12.6 °C 30.1in /  1020.3hPa Calm     74% 0in /  0.0mm 0 W/m2
01:20 63.1 °F /  17.3 °C 54.7 °F /  12.6 °C 30.1in /  1020.0hPa Calm     74% 0in /  0.0mm 0 W/m2
01:25 63 °F /  17.2 °C 54.5 °F /  12.5 °C 30.1in /  1020.0hPa Calm     74% 0in /  0.0mm 0 W/m2
01:30 63 °F /  17.2 °C 54.9 °F /  12.7 °C 30.1in /  1020.0hPa Calm     75% 0in /  0.0mm 0 W/m2
01:35 62.8 °F /  17.1 °C 54.7 °F /  12.6 °C 30.1in /  1020.0hPa Calm     75% 0in /  0.0mm 0 W/m2
01:40 62.8 °F /  17.1 °C 54.7 °F /  12.6 °C 30.1in /  1020.3hPa Calm     75% 0in /  0.0mm 0 W/m2
01:45 62.8 °F /  17.1 °C 54.7 °F /  12.6 °C 30.1in /  1020.3hPa Calm     75% 0in /  0.0mm 0 W/m2
01:50 62.6 °F /  17 °C 54.9 °F /  12.7 °C 30.1in /  1020.0hPa Calm     76% 0in /  0.0mm 0 W/m2
01:55 62.4 °F /  16.9 °C 54.7 °F /  12.6 °C 30.1in /  1020.3hPa Calm     76% 0in /  0.0mm 0 W/m2
02:00 62.4 °F /  16.9 °C 55 °F /  12.8 °C 30.1in /  1020.3hPa Calm     77% 0in /  0.0mm 0 W/m2
02:05 62.2 °F /  16.8 °C 54.9 °F /  12.7 °C 30.1in /  1020.0hPa Calm     77% 0in /  0.0mm 0 W/m2
02:10 62.2 °F /  16.8 °C 54.9 °F /  12.7 °C 30.1in /  1020.0hPa Calm     77% 0in /  0.0mm 0 W/m2
02:15 62.1 °F /  16.7 °C 54.7 °F /  12.6 °C 30.1in /  1020.0hPa Calm     77% 0in /  0.0mm 0 W/m2
02:20 62.1 °F /  16.7 °C 54.7 °F /  12.6 °C 30.1in /  1020.0hPa Calm     77% 0in /  0.0mm 0 W/m2
02:25 62.1 °F /  16.7 °C 54.7 °F /  12.6 °C 30.1in /  1020.0hPa Calm     77% 0in /  0.0mm 0 W/m2
02:30 61.9 °F /  16.6 °C 54.7 °F /  12.6 °C 30.1in /  1020.3hPa Calm     77% 0in /  0.0mm 0 W/m2
02:35 61.9 °F /  16.6 °C 54.3 °F /  12.4 °C 30.1in /  1020.0hPa Calm     76% 0in /  0.0mm 0 W/m2
02:40 61.9 °F /  16.6 °C 54.7 °F /  12.6 °C 30.1in /  1020.0hPa Calm     77% 0in /  0.0mm 0 W/m2
02:46 61.9 °F /  16.6 °C 54.7 °F /  12.6 °C 30.1in /  1020.0hPa Calm     77% 0in /  0.0mm 0 W/m2
02:51 61.7 °F /  16.5 °C 54.5 °F /  12.5 °C 30.1in /  1020.0hPa Calm     77% 0in /  0.0mm 0 W/m2
02:56 61.5 °F /  16.4 °C 54 °F /  12.2 °C 30.1in /  1020.0hPa Calm     76% 0in /  0.0mm 0 W/m2
03:01 61.5 °F /  16.4 °C 54.3 °F /  12.4 °C 30.1in /  1020.0hPa Calm     77% 0in /  0.0mm 0 W/m2
03:06 61.3 °F /  16.3 °C 54.1 °F /  12.3 °C 30.1in /  1020.0hPa Calm     77% 0in /  0.0mm 0 W/m2
03:11 61.3 °F /  16.3 °C 54.5 °F /  12.5 °C 30.1in /  1020.0hPa Calm     78% 0in /  0.0mm 0 W/m2
03:16 61.2 °F /  16.2 °C 54.3 °F /  12.4 °C 30.1in /  1020.0hPa Calm     78% 0in /  0.0mm 0 W/m2
03:21 61.3 °F /  16.3 °C 54.5 °F /  12.5 °C 30.1in /  1020.0hPa Calm     78% 0in /  0.0mm 0 W/m2
03:26 61.3 °F /  16.3 °C 54.5 °F /  12.5 °C 30.1in /  1020.0hPa Calm     78% 0in /  0.0mm 0 W/m2
03:31 61.2 °F /  16.2 °C 54.3 °F /  12.4 °C 30.1in /  1020.0hPa Calm     78% 0in /  0.0mm 0 W/m2
03:36 61.2 °F /  16.2 °C 54.3 °F /  12.4 °C 30.1in /  1020.0hPa Calm     78% 0in /  0.0mm 0 W/m2
03:41 61 °F /  16.1 °C 54.5 °F /  12.5 °C 30.1in /  1020.0hPa Calm     79% 0in /  0.0mm 0 W/m2
03:46 61 °F /  16.1 °C 54.5 °F /  12.5 °C 30.1in /  1020.0hPa Calm     79% 0in /  0.0mm 0 W/m2
03:51 60.6 °F /  15.9 °C 54.1 °F /  12.3 °C 30.1in /  1019.6hPa Calm     79% 0in /  0.0mm 0 W/m2
03:56 60.6 °F /  15.9 °C 54.5 °F /  12.5 °C 30.1in /  1019.6hPa Calm     80% 0in /  0.0mm 0 W/m2
04:01 60.4 °F /  15.8 °C 54.3 °F /  12.4 °C 30.1in /  1019.6hPa Calm     80% 0in /  0.0mm 0 W/m2
04:06 60.4 °F /  15.8 °C 54.3 °F /  12.4 °C 30.1in /  1019.6hPa Calm     80% 0in /  0.0mm 0 W/m2
04:11 60.3 °F /  15.7 °C 54.1 °F /  12.3 °C 30.1in /  1019.6hPa Calm     80% 0in /  0.0mm 0 W/m2
04:16 60.1 °F /  15.6 °C 54.3 °F /  12.4 °C 30.1in /  1019.6hPa Calm     81% 0in /  0.0mm 0 W/m2
04:21 60.1 °F /  15.6 °C 54.3 °F /  12.4 °C 30.1in /  1019.6hPa Calm     81% 0in /  0.0mm 0 W/m2
04:26 59.9 °F /  15.5 °C 54.1 °F /  12.3 °C 30.1in /  1019.6hPa Calm     81% 0in /  0.0mm 0 W/m2
04:31 59.9 °F /  15.5 °C 54.3 °F /  12.4 °C 30.1in /  1019.6hPa Calm     82% 0in /  0.0mm 0 W/m2
04:36 59.9 °F /  15.5 °C 54.1 °F /  12.3 °C 30.1in /  1019.6hPa Calm     81% 0in /  0.0mm 0 W/m2
04:41 59.7 °F /  15.4 °C 54.1 °F /  12.3 °C 30.1in /  1019.6hPa Calm     82% 0in /  0.0mm 0 W/m2
04:46 59.7 °F /  15.4 °C 54.1 °F /  12.3 °C 30.1in /  1019.6hPa Calm     82% 0in /  0.0mm 0 W/m2
04:51 59.5 °F /  15.3 °C 54 °F /  12.2 °C 30.1in /  1019.6hPa Calm     82% 0in /  0.0mm 0 W/m2
04:56 59.5 °F /  15.3 °C 54 °F /  12.2 °C 30.1in /  1019.6hPa Calm     82% 0in /  0.0mm 0 W/m2
05:01 59.4 °F /  15.2 °C 53.8 °F /  12.1 °C 30.1in /  1019.6hPa Calm     82% 0in /  0.0mm 0 W/m2
05:06 59.4 °F /  15.2 °C 53.8 °F /  12.1 °C 30.1in /  1019.6hPa Calm     82% 0in /  0.0mm 0 W/m2
05:11 59.2 °F /  15.1 °C 53.6 °F /  12 °C 30.1in /  1019.6hPa Calm     82% 0in /  0.0mm 0 W/m2
05:16 59 °F /  15 °C 53.8 °F /  12.1 °C 30.1in /  1019.6hPa Calm     83% 0in /  0.0mm 0 W/m2
05:21 59 °F /  15 °C 54.1 °F /  12.3 °C 30.1in /  1019.6hPa Calm     84% 0in /  0.0mm 0 W/m2
05:26 58.8 °F /  14.9 °C 54 °F /  12.2 °C 30.1in /  1019.6hPa Calm     84% 0in /  0.0mm 0 W/m2
05:31 58.8 °F /  14.9 °C 54 °F /  12.2 °C 30.1in /  1019.6hPa Calm     84% 0in /  0.0mm 0 W/m2
05:36 58.8 °F /  14.9 °C 54 °F /  12.2 °C 30.1in /  1019.6hPa Calm     84% 0in /  0.0mm 0 W/m2
05:41 58.6 °F /  14.8 °C 53.8 °F /  12.1 °C 30.1in /  1019.6hPa Calm     84% 0in /  0.0mm 0 W/m2
05:46 58.6 °F /  14.8 °C 53.8 °F /  12.1 °C 30.1in /  1019.6hPa Calm     84% 0in /  0.0mm 0 W/m2
05:51 58.6 °F /  14.8 °C 53.8 °F /  12.1 °C 30.1in /  1019.6hPa Calm     84% 0in /  0.0mm 0 W/m2
05:56 58.6 °F /  14.8 °C 53.8 °F /  12.1 °C 30.1in /  1019.6hPa Calm     84% 0in /  0.0mm 0 W/m2
06:01 58.6 °F /  14.8 °C 53.8 °F /  12.1 °C 30.1in /  1019.6hPa Calm     84% 0in /  0.0mm 0 W/m2
06:06 58.6 °F /  14.8 °C 53.8 °F /  12.1 °C 30.1in /  1019.6hPa Calm     84% 0in /  0.0mm 0 W/m2
06:11 58.5 °F /  14.7 °C 53.6 °F /  12 °C 30.1in /  1019.6hPa Calm     84% 0in /  0.0mm 0 W/m2
06:16 58.5 °F /  14.7 °C 53.6 °F /  12 °C 30.1in /  1019.6hPa Calm     84% 0in /  0.0mm 0 W/m2
06:21 58.5 °F /  14.7 °C 54 °F /  12.2 °C 30.1in /  1019.6hPa Calm     85% 0in /  0.0mm 0 W/m2
06:26 58.5 °F /  14.7 °C 54 °F /  12.2 °C 30.1in /  1019.6hPa Calm     85% 0in /  0.0mm 0 W/m2
06:31 58.5 °F /  14.7 °C 54 °F /  12.2 °C 30.1in /  1019.6hPa Calm     85% 0in /  0.0mm 0 W/m2
06:36 58.5 °F /  14.7 °C 54 °F /  12.2 °C 30.1in /  1019.6hPa Calm     85% 0in /  0.0mm 0 W/m2
06:41 58.5 °F /  14.7 °C 54 °F /  12.2 °C 30.1in /  1019.6hPa Calm     85% 0in /  0.0mm 0 W/m2
06:46 58.5 °F /  14.7 °C 54 °F /  12.2 °C 30.1in /  1019.6hPa Calm     85% 0in /  0.0mm 0 W/m2
06:51 58.6 °F /  14.8 °C 54.1 °F /  12.3 °C 30.1in /  1019.6hPa Calm     85% 0in /  0.0mm 0 W/m2
06:56 58.5 °F /  14.7 °C 54 °F /  12.2 °C 30.1in /  1019.6hPa Calm     85% 0in /  0.0mm 0 W/m2
07:01 58.5 °F /  14.7 °C 54 °F /  12.2 °C 30.1in /  1019.6hPa Calm     85% 0in /  0.0mm 0 W/m2
07:06 58.3 °F /  14.6 °C 53.8 °F /  12.1 °C 30.1in /  1019.6hPa Calm     85% 0in /  0.0mm 0 W/m2
07:11 58.3 °F /  14.6 °C 53.8 °F /  12.1 °C 30.1in /  1019.6hPa Calm     85% 0in /  0.0mm 0 W/m2
07:16 58.3 °F /  14.6 °C 54.1 °F /  12.3 °C 30.1in /  1019.6hPa Calm     86% 0in /  0.0mm 5 W/m2
07:21 58.3 °F /  14.6 °C 54.1 °F /  12.3 °C 30.1in /  1019.6hPa Calm     86% 0in /  0.0mm 7 W/m2
07:26 58.3 °F /  14.6 °C 54.1 °F /  12.3 °C 30.1in /  1019.6hPa Calm     86% 0in /  0.0mm 11 W/m2
07:32 58.5 °F /  14.7 °C 54 °F /  12.2 °C 30.1in /  1019.6hPa Calm     85% 0in /  0.0mm 12 W/m2
07:37 58.6 °F /  14.8 °C 54.1 °F /  12.3 °C 30.1in /  1019.6hPa Calm     85% 0in /  0.0mm 14 W/m2
07:42 58.6 °F /  14.8 °C 54.1 °F /  12.3 °C 30.1in /  1019.6hPa Calm     85% 0in /  0.0mm 16 W/m2
07:47 58.6 °F /  14.8 °C 54.1 °F /  12.3 °C 30.1in /  1019.6hPa Calm     85% 0in /  0.0mm 19 W/m2
07:52 58.6 °F /  14.8 °C 54.1 °F /  12.3 °C 30.1in /  1019.6hPa Calm     85% 0in /  0.0mm 19 W/m2
07:57 58.8 °F /  14.9 °C 54.3 °F /  12.4 °C 30.1in /  1019.6hPa Calm     85% 0in /  0.0mm 23 W/m2
08:02 58.6 °F /  14.8 °C 54.1 °F /  12.3 °C 30.1in /  1019.6hPa Calm     85% 0in /  0.0mm 25 W/m2
08:07 58.8 °F /  14.9 °C 54.7 °F /  12.6 °C 30.1in /  1019.6hPa Calm     86% 0in /  0.0mm 26 W/m2
08:12 58.8 °F /  14.9 °C 54.7 °F /  12.6 °C 30.1in /  1019.6hPa Calm     86% 0in /  0.0mm 28 W/m2
08:17 59 °F /  15 °C 54.5 °F /  12.5 °C 30.1in /  1019.6hPa SW 0.9mph /  1.4km/h 1mph /  1.6km/h 85% 0in /  0.0mm 30 W/m2
08:22 59.4 °F /  15.2 °C 54.9 °F /  12.7 °C 30.1in /  1019.6hPa Calm     85% 0in /  0.0mm 69 W/m2
08:27 59.5 °F /  15.3 °C 55 °F /  12.8 °C 30.1in /  1019.6hPa Calm   2mph /  3.2km/h 85% 0in /  0.0mm 90 W/m2
08:32 60.1 °F /  15.6 °C 55.2 °F /  12.9 °C 30.1in /  1019.6hPa Calm     84% 0in /  0.0mm 100 W/m2
08:37 60.4 °F /  15.8 °C 55.2 °F /  12.9 °C 30.1in /  1019.6hPa NE 2mph /  3.2km/h 2mph /  3.2km/h 83% 0in /  0.0mm 116 W/m2
08:42 61 °F /  16.1 °C 55.4 °F /  13 °C 30.1in /  1019.6hPa Calm     82% 0in /  0.0mm 128 W/m2
08:47 61.3 °F /  16.3 °C 55.4 °F /  13 °C 30.1in /  1020.0hPa Calm   2mph /  3.2km/h 81% 0in /  0.0mm 62 W/m2
08:52 61.9 °F /  16.6 °C 55.6 °F /  13.1 °C 30.1in /  1019.6hPa ENE 0.9mph /  1.4km/h 2mph /  3.2km/h 80% 0in /  0.0mm 37 W/m2
08:57 62.4 °F /  16.9 °C 55.4 °F /  13 °C 30.1in /  1019.6hPa ENE 0.9mph /  1.4km/h 1mph /  1.6km/h 78% 0in /  0.0mm 163 W/m2
09:03 63 °F /  17.2 °C 55.6 °F /  13.1 °C 30.1in /  1019.6hPa Calm     77% 0in /  0.0mm 181 W/m2
09:08 63.3 °F /  17.4 °C 55.2 °F /  12.9 °C 30.1in /  1020.0hPa Calm     75% 0in /  0.0mm 197 W/m2
09:13 63.9 °F /  17.7 °C 55.8 °F /  13.2 °C 30.1in /  1020.0hPa Calm     75% 0in /  0.0mm 197 W/m2
09:18 64.2 °F /  17.9 °C 55.8 °F /  13.2 °C 30.1in /  1020.0hPa Calm     74% 0in /  0.0mm 98 W/m2
09:23 64.8 °F /  18.2 °C 56.3 °F /  13.5 °C 30.1in /  1020.0hPa Calm     74% 0in /  0.0mm 42 W/m2
09:28 65.5 °F /  18.6 °C 56.3 °F /  13.5 °C 30.1in /  1020.0hPa ESE 0.9mph /  1.4km/h 2mph /  3.2km/h 72% 0in /  0.0mm 44 W/m2
09:33 66 °F /  18.9 °C 56.7 °F /  13.7 °C 30.1in /  1020.0hPa Calm   1mph /  1.6km/h 72% 0in /  0.0mm 44 W/m2
09:38 66.7 °F /  19.3 °C 57 °F /  13.9 °C 30.1in /  1020.0hPa Calm   2mph /  3.2km/h 71% 0in /  0.0mm 46 W/m2
09:43 67.3 °F /  19.6 °C 56.8 °F /  13.8 °C 30.1in /  1020.0hPa Calm   3mph /  4.8km/h 69% 0in /  0.0mm 47 W/m2
09:48 67.5 °F /  19.7 °C 57.4 °F /  14.1 °C 30.1in /  1020.0hPa NE 0.9mph /  1.4km/h 2mph /  3.2km/h 70% 0in /  0.0mm 46 W/m2
09:53 67.6 °F /  19.8 °C 57 °F /  13.9 °C 30.1in /  1020.0hPa East 0.9mph /  1.4km/h 3mph /  4.8km/h 69% 0in /  0.0mm 47 W/m2
09:58 68 °F /  20 °C 57.4 °F /  14.1 °C 30.1in /  1020.0hPa ESE 2mph /  3.2km/h 3mph /  4.8km/h 69% 0in /  0.0mm 47 W/m2
10:03 68.5 °F /  20.3 °C 57.6 °F /  14.2 °C 30.1in /  1020.0hPa ENE 2mph /  3.2km/h 3mph /  4.8km/h 68% 0in /  0.0mm 47 W/m2
10:08 68.7 °F /  20.4 °C 57.7 °F /  14.3 °C 30.1in /  1020.0hPa ENE 0.9mph /  1.4km/h 1mph /  1.6km/h 68% 0in /  0.0mm 47 W/m2
10:13 69.4 °F /  20.8 °C 57.9 °F /  14.4 °C 30.1in /  1020.0hPa ENE 0.9mph /  1.4km/h 2mph /  3.2km/h 67% 0in /  0.0mm 49 W/m2
10:18 70 °F /  21.1 °C 58.5 °F /  14.7 °C 30.1in /  1020.0hPa ENE 0.9mph /  1.4km/h 2mph /  3.2km/h 67% 0in /  0.0mm 49 W/m2
10:23 70.3 °F /  21.3 °C 58.1 °F /  14.5 °C 30.1in /  1020.0hPa NE 2.9mph /  4.7km/h 3mph /  4.8km/h 65% 0in /  0.0mm 49 W/m2
10:28 70.9 °F /  21.6 °C 58.5 °F /  14.7 °C 30.1in /  1020.0hPa Calm   2mph /  3.2km/h 65% 0in /  0.0mm 49 W/m2
10:33 71.2 °F /  21.8 °C 58.5 °F /  14.7 °C 30.1in /  1020.0hPa NE 0.9mph /  1.4km/h 1mph /  1.6km/h 64% 0in /  0.0mm 51 W/m2
10:38 71.8 °F /  22.1 °C 59 °F /  15 °C 30.1in /  1020.0hPa NNW 2mph /  3.2km/h 3mph /  4.8km/h 64% 0in /  0.0mm 51 W/m2
10:43 72 °F /  22.2 °C 59.2 °F /  15.1 °C 30.1in /  1020.0hPa NE 2.9mph /  4.7km/h 3mph /  4.8km/h 64% 0in /  0.0mm 51 W/m2
10:48 72.5 °F /  22.5 °C 59.2 °F /  15.1 °C 30.1in /  1020.0hPa ENE 0.9mph /  1.4km/h 1mph /  1.6km/h 63% 0in /  0.0mm 53 W/m2
10:54 73 °F /  22.8 °C 59.2 °F /  15.1 °C 30.1in /  1020.0hPa East 2.9mph /  4.7km/h 3mph /  4.8km/h 62% 0in /  0.0mm 53 W/m2
10:59 73.8 °F /  23.2 °C 59.9 °F /  15.5 °C 30.1in /  1020.0hPa ESE 0.9mph /  1.4km/h 4mph /  6.4km/h 62% 0in /  0.0mm 54 W/m2
11:04 73.9 °F /  23.3 °C 59.7 °F /  15.4 °C 30.1in /  1020.0hPa East 0.9mph /  1.4km/h 2mph /  3.2km/h 61% 0in /  0.0mm 56 W/m2
11:09 74.7 °F /  23.7 °C 59.9 °F /  15.5 °C 30.1in /  1020.0hPa ESE 0.9mph /  1.4km/h 3mph /  4.8km/h 60% 0in /  0.0mm 58 W/m2
11:14 75 °F /  23.9 °C 60.3 °F /  15.7 °C 30.1in /  1020.0hPa Calm   2mph /  3.2km/h 60% 0in /  0.0mm 60 W/m2
11:19 75.4 °F /  24.1 °C 60.1 °F /  15.6 °C 30.1in /  1020.0hPa NE 2mph /  3.2km/h 4mph /  6.4km/h 59% 0in /  0.0mm 62 W/m2
11:24 75.4 °F /  24.1 °C 60.1 °F /  15.6 °C 30.1in /  1020.0hPa East 2mph /  3.2km/h 3mph /  4.8km/h 59% 0in /  0.0mm 63 W/m2
11:29 75.7 °F /  24.3 °C 60.4 °F /  15.8 °C 30.1in /  1019.6hPa ESE 4mph /  6.4km/h 4mph /  6.4km/h 59% 0in /  0.0mm 65 W/m2
11:34 76.3 °F /  24.6 °C 60.4 °F /  15.8 °C 30.1in /  1019.6hPa NW 0.9mph /  1.4km/h 1mph /  1.6km/h 58% 0in /  0.0mm 67 W/m2
11:39 76.8 °F /  24.9 °C 61 °F /  16.1 °C 30.1in /  1020.0hPa NNW 0.9mph /  1.4km/h 2mph /  3.2km/h 58% 0in /  0.0mm 76 W/m2
11:44 77.5 °F /  25.3 °C 61.2 °F /  16.2 °C 30.1in /  1019.6hPa East 2mph /  3.2km/h 2mph /  3.2km/h 57% 0in /  0.0mm 410 W/m2
11:49 78.1 °F /  25.6 °C 61.2 °F /  16.2 °C 30.1in /  1019.6hPa Calm   3mph /  4.8km/h 56% 0in /  0.0mm 570 W/m2
11:54 78.4 °F /  25.8 °C 61.5 °F /  16.4 °C 30.1in /  1019.6hPa East 2.9mph /  4.7km/h 4mph /  6.4km/h 56% 0in /  0.0mm 577 W/m2
11:59 79.2 °F /  26.2 °C 61.5 °F /  16.4 °C 30.1in /  1019.6hPa North 2mph /  3.2km/h 3mph /  4.8km/h 55% 0in /  0.0mm 584 W/m2
12:04 79.5 °F /  26.4 °C 61.3 °F /  16.3 °C 30.1in /  1019.6hPa NE 2.9mph /  4.7km/h 4mph /  6.4km/h 54% 0in /  0.0mm 592 W/m2
12:09 80.1 °F /  26.7 °C 62.4 °F /  16.9 °C 30.1in /  1019.6hPa Calm   2mph /  3.2km/h 55% 0in /  0.0mm 599 W/m2
12:14 80.8 °F /  27.1 °C 62.1 °F /  16.7 °C 30.1in /  1019.3hPa Calm   4mph /  6.4km/h 53% 0in /  0.0mm 606 W/m2
12:19 81.3 °F /  27.4 °C 62.1 °F /  16.7 °C 30.1in /  1019.6hPa ENE 2.9mph /  4.7km/h 3mph /  4.8km/h 52% 0in /  0.0mm 613 W/m2
12:24 81.3 °F /  27.4 °C 61.5 °F /  16.4 °C 30.1in /  1019.3hPa ENE 2.9mph /  4.7km/h 4mph /  6.4km/h 51% 0in /  0.0mm 617 W/m2
12:29 81.7 °F /  27.6 °C 62.4 °F /  16.9 °C 30.1in /  1019.3hPa ESE 2mph /  3.2km/h 4mph /  6.4km/h 52% 0in /  0.0mm 624 W/m2
12:39 82.6 °F /  28.1 °C 62.6 °F /  17 °C 30.1in /  1019.3hPa East 0.9mph /  1.4km/h 4mph /  6.4km/h 51% 0in /  0.0mm 631 W/m2
12:44 83.5 °F /  28.6 °C 63 °F /  17.2 °C 30.1in /  1019.3hPa ENE 2.9mph /  4.7km/h 5mph /  8km/h 50% 0in /  0.0mm 636 W/m2
12:49 83.7 °F /  28.7 °C 62.4 °F /  16.9 °C 30.1in /  1019.3hPa NE 0.9mph /  1.4km/h 4mph /  6.4km/h 49% 0in /  0.0mm 640 W/m2
12:54 83.5 °F /  28.6 °C 62.2 °F /  16.8 °C 30.1in /  1019.3hPa NE 0.9mph /  1.4km/h 4mph /  6.4km/h 49% 0in /  0.0mm 643 W/m2
12:59 83.5 °F /  28.6 °C 62.2 °F /  16.8 °C 30.1in /  1019.0hPa ENE 0.9mph /  1.4km/h 4mph /  6.4km/h 49% 0in /  0.0mm 645 W/m2
13:04 84 °F /  28.9 °C 63.3 °F /  17.4 °C 30.1in /  1019.0hPa East 4.9mph /  7.9km/h 5mph /  8km/h 50% 0in /  0.0mm 647 W/m2
13:09 84.6 °F /  29.2 °C 62.8 °F /  17.1 °C 30.1in /  1019.0hPa ENE 2.9mph /  4.7km/h 3mph /  4.8km/h 48% 0in /  0.0mm 652 W/m2
13:14 84.9 °F /  29.4 °C 63 °F /  17.2 °C 30.1in /  1019.0hPa ENE 4.9mph /  7.9km/h 5mph /  8km/h 48% 0in /  0.0mm 652 W/m2
13:19 85.5 °F /  29.7 °C 63 °F /  17.2 °C 30.1in /  1019.0hPa WNW 2mph /  3.2km/h 6mph /  9.7km/h 47% 0in /  0.0mm 654 W/m2
13:24 85.6 °F /  29.8 °C 63.1 °F /  17.3 °C 30.1in /  1019.0hPa NE 2.9mph /  4.7km/h 3mph /  4.8km/h 47% 0in /  0.0mm 652 W/m2
13:29 85.8 °F /  29.9 °C 62.6 °F /  17 °C 30.1in /  1019.0hPa NNE 0.9mph /  1.4km/h 4mph /  6.4km/h 46% 0in /  0.0mm 654 W/m2
13:34 86.2 °F /  30.1 °C 63.5 °F /  17.5 °C 30.1in /  1019.0hPa ESE 0.9mph /  1.4km/h 2mph /  3.2km/h 47% 0in /  0.0mm 652 W/m2
13:39 86.7 °F /  30.4 °C 62.8 °F /  17.1 °C 30.1in /  1018.6hPa NNE 0.9mph /  1.4km/h 3mph /  4.8km/h 45% 0in /  0.0mm 652 W/m2
13:44 87.3 °F /  30.7 °C 62.6 °F /  17 °C 30.1in /  1018.6hPa NE 0.9mph /  1.4km/h 4mph /  6.4km/h 44% 0in /  0.0mm 652 W/m2
13:49 87.4 °F /  30.8 °C 62.8 °F /  17.1 °C 30.1in /  1018.6hPa ENE 0.9mph /  1.4km/h 2mph /  3.2km/h 44% 0in /  0.0mm 654 W/m2
13:54 87.8 °F /  31 °C 63.1 °F /  17.3 °C 30.1in /  1018.6hPa NE 2.9mph /  4.7km/h 5mph /  8km/h 44% 0in /  0.0mm 652 W/m2
13:59 88 °F /  31.1 °C 62.6 °F /  17 °C 30.1in /  1018.6hPa NE 2.9mph /  4.7km/h 3mph /  4.8km/h 43% 0in /  0.0mm 652 W/m2
14:04 88.2 °F /  31.2 °C 62.8 °F /  17.1 °C 30.1in /  1018.3hPa ENE 2mph /  3.2km/h 3mph /  4.8km/h 43% 0in /  0.0mm 649 W/m2
14:09 88.7 °F /  31.5 °C 62.6 °F /  17 °C 30.1in /  1018.3hPa ENE 4mph /  6.4km/h 6mph /  9.7km/h 42% 0in /  0.0mm 650 W/m2
14:14 88.9 °F /  31.6 °C 62.8 °F /  17.1 °C 30.1in /  1018.3hPa NNE 0.9mph /  1.4km/h 3mph /  4.8km/h 42% 0in /  0.0mm 643 W/m2
14:19 89.1 °F /  31.7 °C 63 °F /  17.2 °C 30.1in /  1018.3hPa ESE 2mph /  3.2km/h 4mph /  6.4km/h 42% 0in /  0.0mm 643 W/m2
14:24 89.4 °F /  31.9 °C 64 °F /  17.8 °C 30.1in /  1018.0hPa ESE 0.9mph /  1.4km/h 3mph /  4.8km/h 43% 0in /  0.0mm 640 W/m2
14:29 89.8 °F /  32.1 °C 63 °F /  17.2 °C 30.1in /  1018.0hPa ENE 2mph /  3.2km/h 3mph /  4.8km/h 41% 0in /  0.0mm 636 W/m2
14:34 90 °F /  32.2 °C 63.1 °F /  17.3 °C 30.1in /  1018.0hPa East 0.9mph /  1.4km/h 3mph /  4.8km/h 41% 0in /  0.0mm 635 W/m2
14:39 90 °F /  32.2 °C 63.1 °F /  17.3 °C 30.1in /  1018.0hPa ESE 2mph /  3.2km/h 5mph /  8km/h 41% 0in /  0.0mm 633 W/m2
14:44 90 °F /  32.2 °C 61.7 °F /  16.5 °C 30.1in /  1018.0hPa NE 0.9mph /  1.4km/h 2mph /  3.2km/h 39% 0in /  0.0mm 624 W/m2
14:49 89.8 °F /  32.1 °C 63.7 °F /  17.6 °C 30.1in /  1018.0hPa East 2.9mph /  4.7km/h 3mph /  4.8km/h 42% 0in /  0.0mm 624 W/m2
14:54 90.1 °F /  32.3 °C 61.9 °F /  16.6 °C 30.1in /  1018.0hPa ESE 2mph /  3.2km/h 7mph /  11.3km/h 39% 0in /  0.0mm 615 W/m2
14:59 90.3 °F /  32.4 °C 61.3 °F /  16.3 °C 30.1in /  1017.6hPa Calm   2mph /  3.2km/h 38% 0in /  0.0mm 610 W/m2
15:04 90.7 °F /  32.6 °C 62.2 °F /  16.8 °C 30.1in /  1017.6hPa NE 2.9mph /  4.7km/h 6mph /  9.7km/h 39% 0in /  0.0mm 605 W/m2
15:09 91 °F /  32.8 °C 61.9 °F /  16.6 °C 30.1in /  1017.6hPa East 2.9mph /  4.7km/h 4mph /  6.4km/h 38% 0in /  0.0mm 601 W/m2
15:14 91 °F /  32.8 °C 61.2 °F /  16.2 °C 30.1in /  1017.6hPa North 0.9mph /  1.4km/h 3mph /  4.8km/h 37% 0in /  0.0mm 599 W/m2
15:19 91 °F /  32.8 °C 61.2 °F /  16.2 °C 30.1in /  1017.6hPa WNW 0.9mph /  1.4km/h 3mph /  4.8km/h 37% 0in /  0.0mm 584 W/m2
15:24 91 °F /  32.8 °C 61.2 °F /  16.2 °C 30.1in /  1017.6hPa WNW 2.9mph /  4.7km/h 3mph /  4.8km/h 37% 0in /  0.0mm 580 W/m2
15:29 91.2 °F /  32.9 °C 61.3 °F /  16.3 °C 30in /  1017.3hPa ESE 0.9mph /  1.4km/h 2mph /  3.2km/h 37% 0in /  0.0mm 575 W/m2
15:34 91.6 °F /  33.1 °C 61.7 °F /  16.5 °C 30in /  1017.3hPa East 2mph /  3.2km/h 3mph /  4.8km/h 37% 0in /  0.0mm 571 W/m2
15:39 91.8 °F /  33.2 °C 61 °F /  16.1 °C 30in /  1017.3hPa NNE 0.9mph /  1.4km/h 5mph /  8km/h 36% 0in /  0.0mm 563 W/m2
15:44 91.9 °F /  33.3 °C 61.2 °F /  16.2 °C 30in /  1017.3hPa Calm   3mph /  4.8km/h 36% 0in /  0.0mm 550 W/m2
15:49 92.1 °F /  33.4 °C 62.1 °F /  16.7 °C 30in /  1017.3hPa Calm   2mph /  3.2km/h 37% 0in /  0.0mm 552 W/m2
15:54 92.1 °F /  33.4 °C 61.3 °F /  16.3 °C 30in /  1017.3hPa West 0.9mph /  1.4km/h 2mph /  3.2km/h 36% 0in /  0.0mm 534 W/m2
15:59 92.3 °F /  33.5 °C 62.2 °F /  16.8 °C 30in /  1016.9hPa SSE 0.9mph /  1.4km/h 2mph /  3.2km/h 37% 0in /  0.0mm 529 W/m2
16:04 92.5 °F /  33.6 °C 62.4 °F /  16.9 °C 30in /  1016.9hPa Calm   1mph /  1.6km/h 37% 0in /  0.0mm 508 W/m2
16:09 92.7 °F /  33.7 °C 61.9 °F /  16.6 °C 30in /  1016.9hPa West 2mph /  3.2km/h 4mph /  6.4km/h 36% 0in /  0.0mm 499 W/m2
16:14 92.5 °F /  33.6 °C 61.7 °F /  16.5 °C 30in /  1016.9hPa West 0.9mph /  1.4km/h 1mph /  1.6km/h 36% 0in /  0.0mm 496 W/m2
16:19 92.1 °F /  33.4 °C 60.4 °F /  15.8 °C 30in /  1016.9hPa ESE 4mph /  6.4km/h 4mph /  6.4km/h 35% 0in /  0.0mm 84 W/m2
16:24 91.6 °F /  33.1 °C 60.8 °F /  16 °C 30in /  1016.9hPa SSE 0.9mph /  1.4km/h 3mph /  4.8km/h 36% 0in /  0.0mm 496 W/m2
16:29 91 °F /  32.8 °C 61.9 °F /  16.6 °C 30in /  1016.9hPa ENE 0.9mph /  1.4km/h 4mph /  6.4km/h 38% 0in /  0.0mm 76 W/m2
16:34 90.3 °F /  32.4 °C 62.1 °F /  16.7 °C 30in /  1016.9hPa Calm     39% 0in /  0.0mm 81 W/m2
16:39 89.4 °F /  31.9 °C 61.9 °F /  16.6 °C 30in /  1016.9hPa Calm   1mph /  1.6km/h 40% 0in /  0.0mm 70 W/m2
16:44 88.9 °F /  31.6 °C 62.1 °F /  16.7 °C 30in /  1016.9hPa Calm     41% 0in /  0.0mm 69 W/m2
16:49 88 °F /  31.1 °C 62.6 °F /  17 °C 30in /  1016.9hPa Calm   1mph /  1.6km/h 43% 0in /  0.0mm 72 W/m2
16:54 87.3 °F /  30.7 °C 60.6 °F /  15.9 °C 30in /  1016.6hPa Calm   2mph /  3.2km/h 41% 0in /  0.0mm 98 W/m2
16:59 87.3 °F /  30.7 °C 59.9 °F /  15.5 °C 30in /  1016.6hPa ENE 0.9mph /  1.4km/h 1mph /  1.6km/h 40% 0in /  0.0mm 483 W/m2
17:04 88 °F /  31.1 °C 62.6 °F /  17 °C 30in /  1016.6hPa Calm     43% 0in /  0.0mm 478 W/m2
17:09 88.9 °F /  31.6 °C 61.5 °F /  16.4 °C 30in /  1016.6hPa Calm   1mph /  1.6km/h 40% 0in /  0.0mm 438 W/m2
17:14 89.6 °F /  32 °C 61.3 °F /  16.3 °C 30in /  1016.6hPa Calm   2mph /  3.2km/h 39% 0in /  0.0mm 403 W/m2
17:19 90.3 °F /  32.4 °C 62.1 °F /  16.7 °C 30in /  1016.6hPa Calm   1mph /  1.6km/h 39% 0in /  0.0mm 390 W/m2
17:24 90.9 °F /  32.7 °C 61 °F /  16.1 °C 30in /  1016.6hPa East 0.9mph /  1.4km/h 1mph /  1.6km/h 37% 0in /  0.0mm 374 W/m2
17:29 91 °F /  32.8 °C 60.4 °F /  15.8 °C 30in /  1016.6hPa East 2mph /  3.2km/h 2mph /  3.2km/h 36% 0in /  0.0mm 362 W/m2
17:34 91.2 °F /  32.9 °C 59.7 °F /  15.4 °C 30in /  1016.6hPa SE 0.9mph /  1.4km/h 2mph /  3.2km/h 35% 0in /  0.0mm 74 W/m2
17:39 91.2 °F /  32.9 °C 62.1 °F /  16.7 °C 30in /  1016.3hPa Calm     38% 0in /  0.0mm 308 W/m2
17:44 91 °F /  32.8 °C 61.9 °F /  16.6 °C 30in /  1016.3hPa Calm   2mph /  3.2km/h 38% 0in /  0.0mm 288 W/m2
17:50 90.9 °F /  32.7 °C 61 °F /  16.1 °C 30in /  1016.3hPa Calm     37% 0in /  0.0mm 267 W/m2
17:55 90.7 °F /  32.6 °C 60.1 °F /  15.6 °C 30in /  1016.3hPa Calm   2mph /  3.2km/h 36% 0in /  0.0mm 172 W/m2
18:00 90.5 °F /  32.5 °C 62.2 °F /  16.8 °C 30in /  1016.3hPa Calm   1mph /  1.6km/h 39% 0in /  0.0mm 167 W/m2
18:05 90.1 °F /  32.3 °C 62.6 °F /  17 °C 30in /  1016.3hPa SSW 0.9mph /  1.4km/h 1mph /  1.6km/h 40% 0in /  0.0mm 225 W/m2
18:10 90 °F /  32.2 °C 62.4 °F /  16.9 °C 30in /  1016.3hPa SSW 0.9mph /  1.4km/h 1mph /  1.6km/h 40% 0in /  0.0mm 200 W/m2
18:15 89.4 °F /  31.9 °C 61.9 °F /  16.6 °C 30in /  1016.3hPa SSW 0.9mph /  1.4km/h 1mph /  1.6km/h 40% 0in /  0.0mm 62 W/m2
18:20 88.5 °F /  31.4 °C 61.9 °F /  16.6 °C 30in /  1016.3hPa Calm   1mph /  1.6km/h 41% 0in /  0.0mm 54 W/m2
18:25 87.8 °F /  31 °C 61.9 °F /  16.6 °C 30in /  1016.3hPa SSW 0.9mph /  1.4km/h 1mph /  1.6km/h 42% 0in /  0.0mm 44 W/m2
18:30 87.1 °F /  30.6 °C 61.9 °F /  16.6 °C 30in /  1016.3hPa Calm   1mph /  1.6km/h 43% 0in /  0.0mm 42 W/m2
18:35 86.2 °F /  30.1 °C 61 °F /  16.1 °C 30in /  1016.3hPa SSW 0.9mph /  1.4km/h 1mph /  1.6km/h 43% 0in /  0.0mm 39 W/m2
18:41 85.3 °F /  29.6 °C 61.5 °F /  16.4 °C 30in /  1016.3hPa SSW 0.9mph /  1.4km/h 2mph /  3.2km/h 45% 0in /  0.0mm 40 W/m2
18:46 84.6 °F /  29.2 °C 61.5 °F /  16.4 °C 30in /  1016.3hPa SSW 0.9mph /  1.4km/h 2mph /  3.2km/h 46% 0in /  0.0mm 30 W/m2
18:51 83.8 °F /  28.8 °C 61.5 °F /  16.4 °C 30in /  1016.3hPa SSW 0.9mph /  1.4km/h 1mph /  1.6km/h 47% 0in /  0.0mm 26 W/m2
18:56 83.5 °F /  28.6 °C 61.2 °F /  16.2 °C 30in /  1016.3hPa SSW 0.9mph /  1.4km/h 2mph /  3.2km/h 47% 0in /  0.0mm 25 W/m2
19:01 82.8 °F /  28.2 °C 60.4 °F /  15.8 °C 30in /  1016.3hPa SSW 0.9mph /  1.4km/h 1mph /  1.6km/h 47% 0in /  0.0mm 23 W/m2
19:06 82.4 °F /  28 °C 60.8 °F /  16 °C 30in /  1016.3hPa SSW 0.9mph /  1.4km/h 1mph /  1.6km/h 48% 0in /  0.0mm 21 W/m2
19:11 81.9 °F /  27.7 °C 60.3 °F /  15.7 °C 30in /  1016.3hPa SSW 0.9mph /  1.4km/h 2mph /  3.2km/h 48% 0in /  0.0mm 21 W/m2
19:16 81.5 °F /  27.5 °C 59.9 °F /  15.5 °C 30in /  1016.3hPa Calm     48% 0in /  0.0mm 19 W/m2
19:21 81.1 °F /  27.3 °C 60.1 °F /  15.6 °C 30in /  1016.3hPa Calm   1mph /  1.6km/h 49% 0in /  0.0mm 18 W/m2
19:26 80.8 °F /  27.1 °C 60.4 °F /  15.8 °C 30in /  1016.3hPa Calm   1mph /  1.6km/h 50% 0in /  0.0mm 14 W/m2
19:32 80.2 °F /  26.8 °C 59.9 °F /  15.5 °C 30in /  1016.3hPa Calm   1mph /  1.6km/h 50% 0in /  0.0mm 11 W/m2
19:37 79.9 °F /  26.6 °C 59.5 °F /  15.3 °C 30in /  1016.3hPa Calm     50% 0in /  0.0mm 9 W/m2
19:42 79.5 °F /  26.4 °C 59.2 °F /  15.1 °C 30in /  1016.3hPa Calm   1mph /  1.6km/h 50% 0in /  0.0mm 5 W/m2
19:47 79.2 °F /  26.2 °C 59.5 °F /  15.3 °C 30in /  1016.3hPa Calm     51% 0in /  0.0mm 0 W/m2
19:52 79 °F /  26.1 °C 59.4 °F /  15.2 °C 30in /  1016.3hPa Calm     51% 0in /  0.0mm 0 W/m2
19:57 78.4 °F /  25.8 °C 58.8 °F /  14.9 °C 30in /  1016.3hPa Calm     51% 0in /  0.0mm 0 W/m2
20:02 78.3 °F /  25.7 °C 59.2 °F /  15.1 °C 30in /  1016.3hPa Calm     52% 0in /  0.0mm 0 W/m2
20:07 77.9 °F /  25.5 °C 59.4 °F /  15.2 °C 30in /  1016.3hPa Calm     53% 0in /  0.0mm 0 W/m2
20:12 77.5 °F /  25.3 °C 59 °F /  15 °C 30in /  1016.3hPa Calm     53% 0in /  0.0mm 0 W/m2
20:17 77.4 °F /  25.2 °C 58.8 °F /  14.9 °C 30in /  1016.6hPa Calm     53% 0in /  0.0mm 0 W/m2
20:22 77.2 °F /  25.1 °C 59.2 °F /  15.1 °C 30in /  1016.6hPa Calm     54% 0in /  0.0mm 0 W/m2
20:27 76.8 °F /  24.9 °C 59.4 °F /  15.2 °C 30in /  1016.6hPa Calm     55% 0in /  0.0mm 0 W/m2
20:32 76.6 °F /  24.8 °C 59.2 °F /  15.1 °C 30in /  1016.6hPa Calm     55% 0in /  0.0mm 0 W/m2
20:37 76.5 °F /  24.7 °C 59.5 °F /  15.3 °C 30in /  1016.6hPa Calm     56% 0in /  0.0mm 0 W/m2
20:43 76.3 °F /  24.6 °C 59.4 °F /  15.2 °C 30in /  1016.6hPa Calm     56% 0in /  0.0mm 0 W/m2
20:48 75.9 °F /  24.4 °C 59.2 °F /  15.1 °C 30in /  1016.9hPa Calm     56% 0in /  0.0mm 0 W/m2
20:53 75.7 °F /  24.3 °C 59.4 °F /  15.2 °C 30in /  1016.6hPa Calm     57% 0in /  0.0mm 0 W/m2
20:58 75.6 °F /  24.2 °C 59.2 °F /  15.1 °C 30in /  1016.6hPa Calm     57% 0in /  0.0mm 0 W/m2
21:03 75.2 °F /  24 °C 59.4 °F /  15.2 °C 30in /  1016.9hPa Calm     58% 0in /  0.0mm 0 W/m2
21:08 74.8 °F /  23.8 °C 59 °F /  15 °C 30in /  1016.9hPa Calm     58% 0in /  0.0mm 0 W/m2
21:13 74.7 °F /  23.7 °C 59.4 °F /  15.2 °C 30in /  1016.9hPa Calm     59% 0in /  0.0mm 0 W/m2
21:18 74.3 °F /  23.5 °C 59 °F /  15 °C 30in /  1016.9hPa Calm     59% 0in /  0.0mm 0 W/m2
21:23 73.9 °F /  23.3 °C 59.2 °F /  15.1 °C 30in /  1016.9hPa Calm     60% 0in /  0.0mm 0 W/m2
21:28 73.8 °F /  23.2 °C 59 °F /  15 °C 30in /  1016.9hPa Calm     60% 0in /  0.0mm 0 W/m2
21:33 73.8 °F /  23.2 °C 59 °F /  15 °C 30in /  1016.9hPa Calm     60% 0in /  0.0mm 0 W/m2
21:38 73.6 °F /  23.1 °C 59.4 °F /  15.2 °C 30in /  1016.9hPa Calm     61% 0in /  0.0mm 0 W/m2
21:43 73.4 °F /  23 °C 59.2 °F /  15.1 °C 30in /  1016.9hPa Calm     61% 0in /  0.0mm 0 W/m2
21:48 73 °F /  22.8 °C 59.2 °F /  15.1 °C 30in /  1016.9hPa Calm     62% 0in /  0.0mm 0 W/m2
21:53 72.9 °F /  22.7 °C 59 °F /  15 °C 30in /  1016.9hPa Calm     62% 0in /  0.0mm 0 W/m2
21:58 72.7 °F /  22.6 °C 59.4 °F /  15.2 °C 30in /  1016.9hPa Calm     63% 0in /  0.0mm 0 W/m2
22:03 72.3 °F /  22.4 °C 59 °F /  15 °C 30in /  1017.3hPa Calm     63% 0in /  0.0mm 0 W/m2
22:08 72.1 °F /  22.3 °C 58.8 °F /  14.9 °C 30in /  1016.9hPa Calm     63% 0in /  0.0mm 0 W/m2
22:13 72 °F /  22.2 °C 59.2 °F /  15.1 °C 30in /  1017.3hPa Calm     64% 0in /  0.0mm 0 W/m2
22:18 71.8 °F /  22.1 °C 59 °F /  15 °C 30in /  1017.3hPa Calm     64% 0in /  0.0mm 0 W/m2
22:23 71.4 °F /  21.9 °C 58.6 °F /  14.8 °C 30in /  1016.9hPa Calm     64% 0in /  0.0mm 0 W/m2
22:28 71.4 °F /  21.9 °C 58.6 °F /  14.8 °C 30in /  1017.3hPa Calm     64% 0in /  0.0mm 0 W/m2
22:33 71.2 °F /  21.8 °C 58.5 °F /  14.7 °C 30in /  1016.9hPa Calm     64% 0in /  0.0mm 0 W/m2
22:38 71.2 °F /  21.8 °C 58.5 °F /  14.7 °C 30in /  1016.9hPa Calm     64% 0in /  0.0mm 0 W/m2
22:43 71.2 °F /  21.8 °C 58.5 °F /  14.7 °C 30in /  1016.9hPa Calm     64% 0in /  0.0mm 0 W/m2
22:48 71.1 °F /  21.7 °C 58.3 °F /  14.6 °C 30in /  1017.3hPa Calm     64% 0in /  0.0mm 0 W/m2
22:53 71.1 °F /  21.7 °C 58.3 °F /  14.6 °C 30in /  1017.3hPa Calm     64% 0in /  0.0mm 0 W/m2
22:58 70.9 °F /  21.6 °C 58.5 °F /  14.7 °C 30in /  1017.3hPa Calm     65% 0in /  0.0mm 0 W/m2
23:03 70.5 °F /  21.4 °C 58.1 °F /  14.5 °C 30in /  1017.3hPa Calm     65% 0in /  0.0mm 0 W/m2
23:08 70.3 °F /  21.3 °C 58.1 °F /  14.5 °C 30in /  1016.9hPa Calm     65% 0in /  0.0mm 0 W/m2
23:13 70.2 °F /  21.2 °C 58.3 °F /  14.6 °C 30in /  1017.3hPa SSW 0.9mph /  1.4km/h 1mph /  1.6km/h 66% 0in /  0.0mm 0 W/m2
23:18 70.2 °F /  21.2 °C 58.3 °F /  14.6 °C 30in /  1017.3hPa Calm     66% 0in /  0.0mm 0 W/m2
23:23 70 °F /  21.1 °C 58.5 °F /  14.7 °C 30in /  1017.3hPa Calm     67% 0in /  0.0mm 0 W/m2
23:28 70 °F /  21.1 °C 58.5 °F /  14.7 °C 30in /  1017.3hPa Calm     67% 0in /  0.0mm 0 W/m2
23:33 70 °F /  21.1 °C 58.5 °F /  14.7 °C 30in /  1017.3hPa Calm     67% 0in /  0.0mm 0 W/m2
23:39 70 °F /  21.1 °C 58.5 °F /  14.7 °C 30in /  1017.3hPa Calm     67% 0in /  0.0mm 0 W/m2
23:44 70 °F /  21.1 °C 58.5 °F /  14.7 °C 30in /  1017.3hPa Calm     67% 0in /  0.0mm 0 W/m2
23:49 70.2 °F /  21.2 °C 58.6 °F /  14.8 °C 30in /  1017.3hPa Calm   1mph /  1.6km/h 67% 0in /  0.0mm 0 W/m2
23:54 70.2 °F /  21.2 °C 58.6 °F /  14.8 °C 30in /  1017.3hPa SSW 2mph /  3.2km/h 2mph /  3.2km/h 67% 0in /  0.0mm 0 W/m2
23:59 70 °F /  21.1 °C 58.5 °F /  14.7 °C 30in /  1017.3hPa WSW 2mph /  3.2km/h 2mph /  3.2km/h 67% 0in /  0.0mm 0 W/m2
Juneau County Weather
Compliments of Weather Underground - 4 mb